createdAt,value
2023-04-21T00:00:02.408Z,8.70
2023-04-21T00:02:31.965Z,8.79
2023-04-21T00:05:02.526Z,8.80
2023-04-21T00:07:30.915Z,9.02
2023-04-21T00:10:00.684Z,9.01
2023-04-21T00:12:29.152Z,9.05
2023-04-21T00:14:57.321Z,9.05
2023-04-21T00:17:25.758Z,9.06
2023-04-21T00:19:54.723Z,9.16
2023-04-21T00:22:23.492Z,9.16
2023-04-21T00:24:52.112Z,9.29
2023-04-21T00:27:21.954Z,9.22
2023-04-21T00:29:50.299Z,8.80
2023-04-21T00:32:19.911Z,8.77
2023-04-21T00:34:48.826Z,8.80
2023-04-21T00:37:17.179Z,8.57
2023-04-21T00:39:45.695Z,8.49
2023-04-21T00:42:17.154Z,8.76
2023-04-21T00:44:47.333Z,8.75
2023-04-21T00:47:18.289Z,8.83
2023-04-21T00:49:47.331Z,8.92
2023-04-21T00:52:18.731Z,9.14
2023-04-21T00:54:47.794Z,9.14
2023-04-21T00:57:17.843Z,9.23
2023-04-21T00:59:47.874Z,9.16
2023-04-21T01:02:17.137Z,9.18
2023-04-21T01:04:47.371Z,9.24
2023-04-21T01:07:16.072Z,9.09
2023-04-21T01:09:44.423Z,9.08
2023-04-21T01:12:14.040Z,9.18
2023-04-21T01:14:44.615Z,9.16
2023-04-21T01:17:14.358Z,9.08
2023-04-21T01:19:44.198Z,9.04
2023-04-21T01:22:15.475Z,8.72
2023-04-21T01:24:45.668Z,8.75
2023-04-21T01:27:15.780Z,8.78
2023-04-21T01:29:46.959Z,8.62
2023-04-21T01:32:19.428Z,8.74
2023-04-21T01:34:48.322Z,8.66
2023-04-21T01:37:20.694Z,8.77
2023-04-21T01:39:52.410Z,8.96
2023-04-21T01:42:22.134Z,8.93
2023-04-21T01:44:53.860Z,8.96
2023-04-21T01:47:22.898Z,9.06
2023-04-21T01:49:51.827Z,9.13
2023-04-21T01:52:21.963Z,9.10
2023-04-21T01:54:50.757Z,9.12
2023-04-21T01:57:19.598Z,9.10
2023-04-21T01:59:48.494Z,9.14
2023-04-21T02:02:16.688Z,9.17
2023-04-21T02:04:44.869Z,9.17
2023-04-21T02:07:13.369Z,9.11
2023-04-21T02:09:46.048Z,9.11
2023-04-21T02:12:14.463Z,9.15
2023-04-21T02:14:42.818Z,9.15
2023-04-21T02:17:13.707Z,9.19
2023-04-21T02:19:43.635Z,9.18
2023-04-21T02:22:13.187Z,9.11
2023-04-21T02:24:43.745Z,9.20
2023-04-21T02:27:12.043Z,9.29
2023-04-21T02:29:40.383Z,9.05
2023-04-21T02:32:22.237Z,9.06
2023-04-21T02:34:53.514Z,9.16
2023-04-21T02:37:22.393Z,9.21
2023-04-21T02:39:52.546Z,9.20
2023-04-21T02:42:20.678Z,9.18
2023-04-21T02:44:49.113Z,9.18
2023-04-21T02:47:17.904Z,9.22
2023-04-21T02:49:46.408Z,9.15
2023-04-21T02:52:15.439Z,9.17
2023-04-21T02:54:43.893Z,9.21
2023-04-21T02:57:13.614Z,9.35
2023-04-21T02:59:43.179Z,9.25
2023-04-21T03:02:11.723Z,9.30
2023-04-21T03:04:40.095Z,9.31
2023-04-21T03:07:13.465Z,9.26
2023-04-21T03:09:42.171Z,9.39
2023-04-21T03:12:10.586Z,9.32
2023-04-21T03:14:40.612Z,9.20
2023-04-21T03:17:10.399Z,9.23
2023-04-21T03:19:38.654Z,9.25
2023-04-21T03:22:06.759Z,9.05
2023-04-21T03:24:35.213Z,9.16
2023-04-21T03:27:03.292Z,9.31
2023-04-21T03:29:31.837Z,9.34
2023-04-21T03:32:02.051Z,9.07
2023-04-21T03:34:30.556Z,9.06
2023-04-21T03:36:58.596Z,9.22
2023-04-21T03:39:27.300Z,9.29
2023-04-21T03:41:55.674Z,9.18
2023-04-21T03:44:27.166Z,9.26
2023-04-21T03:46:55.305Z,9.25
2023-04-21T03:49:25.090Z,9.28
2023-04-21T03:51:53.725Z,9.32
2023-04-21T03:54:22.166Z,9.33
2023-04-21T03:56:52.972Z,9.36
2023-04-21T03:59:21.810Z,9.29
2023-04-21T04:01:50.101Z,9.29
2023-04-21T04:04:18.857Z,9.33
2023-04-21T04:06:48.703Z,9.33
2023-04-21T04:09:20.154Z,9.38
2023-04-21T04:11:48.504Z,9.44
2023-04-21T04:14:16.648Z,9.46
2023-04-21T04:16:47.682Z,9.45
2023-04-21T04:19:16.347Z,9.45
2023-04-21T04:21:44.804Z,9.44
2023-04-21T04:24:16.073Z,9.50
2023-04-21T04:26:44.606Z,9.49
2023-04-21T04:29:14.095Z,9.45
2023-04-21T04:31:42.508Z,9.49
2023-04-21T04:34:11.568Z,9.39
2023-04-21T04:36:39.812Z,9.39
2023-04-21T04:39:09.661Z,9.51
2023-04-21T04:41:40.068Z,9.51
2023-04-21T04:44:09.272Z,9.45
2023-04-21T04:46:37.697Z,9.52
2023-04-21T04:49:06.509Z,9.51
2023-04-21T04:51:34.765Z,9.54
2023-04-21T04:54:02.918Z,9.51
2023-04-21T04:56:32.068Z,9.52
2023-04-21T04:59:01.961Z,9.53
2023-04-21T05:01:30.954Z,9.58
2023-04-21T05:03:59.789Z,9.53
2023-04-21T05:06:28.725Z,9.65
2023-04-21T05:08:56.769Z,9.74
2023-04-21T05:11:24.984Z,9.66
2023-04-21T05:13:53.140Z,9.66
2023-04-21T05:16:22.902Z,9.72
2023-04-21T05:18:54.157Z,9.73
2023-04-21T05:21:27.898Z,9.72
2023-04-21T05:23:56.421Z,9.76
2023-04-21T05:26:27.808Z,9.79
2023-04-21T05:28:57.230Z,9.80
2023-04-21T05:31:27.633Z,9.79
2023-04-21T05:33:56.331Z,9.79
2023-04-21T05:36:25.990Z,9.88
2023-04-21T05:38:55.387Z,9.86
2023-04-21T05:41:24.156Z,9.86
2023-04-21T05:43:53.612Z,9.72
2023-04-21T05:46:22.042Z,9.87
2023-04-21T05:48:51.898Z,9.91
2023-04-21T05:51:20.214Z,9.99
2023-04-21T05:53:49.363Z,9.99
2023-04-21T05:56:17.971Z,10.03
2023-04-21T05:58:46.139Z,10.05
2023-04-21T06:01:15.633Z,10.07
2023-04-21T06:03:43.967Z,10.18
2023-04-21T06:06:15.265Z,10.00
2023-04-21T06:08:43.866Z,10.15
2023-04-21T06:11:12.024Z,10.22
2023-04-21T06:13:41.711Z,10.36
2023-04-21T06:16:11.878Z,10.40
2023-04-21T06:18:40.260Z,10.50
2023-04-21T06:21:11.504Z,10.49
2023-04-21T06:23:42.731Z,10.52
2023-04-21T06:26:11.138Z,10.47
2023-04-21T06:28:42.017Z,10.47
2023-04-21T06:31:15.365Z,10.29
2023-04-21T06:33:43.718Z,10.36
2023-04-21T06:36:12.250Z,10.38
2023-04-21T06:38:43.408Z,10.55
2023-04-21T06:41:11.791Z,10.54
2023-04-21T06:43:39.900Z,10.61
2023-04-21T06:46:08.077Z,10.65
2023-04-21T06:48:38.430Z,10.54
2023-04-21T06:51:06.889Z,10.65
2023-04-21T06:53:35.145Z,10.79
2023-04-21T06:56:05.075Z,10.65
2023-04-21T06:58:33.264Z,10.64
2023-04-21T07:01:02.133Z,10.73
2023-04-21T07:03:30.293Z,10.75
2023-04-21T07:05:58.866Z,10.92
2023-04-21T07:08:27.318Z,11.00
2023-04-21T07:10:55.635Z,10.95
2023-04-21T07:13:25.518Z,11.05
2023-04-21T07:15:54.170Z,10.94
2023-04-21T07:18:22.183Z,10.87
2023-04-21T07:20:51.214Z,10.91
2023-04-21T07:23:19.421Z,11.10
2023-04-21T07:25:47.780Z,11.09
2023-04-21T07:28:16.372Z,11.23
2023-04-21T07:30:47.488Z,11.20
2023-04-21T07:33:15.896Z,11.29
2023-04-21T07:35:44.655Z,11.18
2023-04-21T07:38:12.817Z,11.29
2023-04-21T07:40:41.323Z,11.31
2023-04-21T07:43:09.415Z,11.35
2023-04-21T07:45:37.839Z,11.45
2023-04-21T07:48:09.747Z,11.53
2023-04-21T07:50:38.441Z,11.63
2023-04-21T07:53:06.542Z,11.73
2023-04-21T07:55:34.911Z,11.62
2023-04-21T07:58:05.176Z,11.79
2023-04-21T08:00:33.340Z,11.92
2023-04-21T08:03:01.818Z,11.99
2023-04-21T08:05:36.678Z,11.97
2023-04-21T08:08:07.705Z,11.94
2023-04-21T08:10:36.248Z,12.10
2023-04-21T08:13:06.561Z,11.86
2023-04-21T08:15:35.528Z,12.19
2023-04-21T08:18:05.074Z,12.33
2023-04-21T08:20:35.208Z,12.60
2023-04-21T08:23:04.584Z,12.79
2023-04-21T08:25:33.836Z,12.90
2023-04-21T08:28:02.730Z,13.24
2023-04-21T08:30:31.243Z,13.50
2023-04-21T08:32:59.675Z,13.50
2023-04-21T08:35:27.783Z,13.68
2023-04-21T08:37:57.508Z,13.55
2023-04-21T08:40:31.222Z,13.61
2023-04-21T08:42:59.584Z,13.59
2023-04-21T08:45:29.716Z,13.43
2023-04-21T08:48:00.403Z,13.57
2023-04-21T08:50:30.725Z,13.54
2023-04-21T08:53:00.590Z,13.38
2023-04-21T08:55:31.475Z,13.53
2023-04-21T08:58:00.251Z,13.60
2023-04-21T09:00:28.977Z,13.65
2023-04-21T09:03:01.255Z,13.79
2023-04-21T09:05:32.075Z,13.83
2023-04-21T09:08:11.760Z,13.99
2023-04-21T09:10:47.115Z,13.80
2023-04-21T09:13:16.338Z,13.68
2023-04-21T09:15:48.119Z,14.12
2023-04-21T09:18:17.942Z,14.27
2023-04-21T09:20:48.234Z,14.51
2023-04-21T09:23:18.600Z,14.47
2023-04-21T09:25:47.470Z,14.16
2023-04-21T09:28:16.616Z,14.24
2023-04-21T09:30:45.262Z,14.20
2023-04-21T09:33:28.871Z,14.50
2023-04-21T09:36:03.032Z,14.06
2023-04-21T09:38:33.969Z,14.34
2023-04-21T09:41:02.660Z,14.58
2023-04-21T09:43:32.248Z,14.63
2023-04-21T09:46:03.955Z,14.48
2023-04-21T09:48:35.922Z,14.64
2023-04-21T09:51:22.780Z,14.71
2023-04-21T09:53:59.736Z,14.64
2023-04-21T09:56:31.889Z,14.65
2023-04-21T09:59:02.983Z,14.64
2023-04-21T10:01:32.274Z,14.70
2023-04-21T10:04:01.263Z,14.24
2023-04-21T10:06:30.216Z,14.27
2023-04-21T10:09:00.442Z,14.49
2023-04-21T10:11:28.738Z,14.15
2023-04-21T10:13:56.837Z,14.19
2023-04-21T10:16:26.776Z,14.38
2023-04-21T10:18:55.008Z,14.42
2023-04-21T10:21:24.625Z,14.49
2023-04-21T10:23:54.858Z,14.76
2023-04-21T10:26:27.418Z,14.74
2023-04-21T10:28:57.711Z,14.83
2023-04-21T10:31:31.839Z,14.87
2023-04-21T10:34:30.656Z,15.13
2023-04-21T10:37:15.718Z,15.05
2023-04-21T10:39:57.428Z,14.38
2023-04-21T10:42:37.266Z,14.79
2023-04-21T10:45:11.929Z,15.51
2023-04-21T10:47:49.406Z,16.02
2023-04-21T10:50:26.046Z,15.55
2023-04-21T10:52:57.391Z,15.44
2023-04-21T10:55:31.483Z,14.77
2023-04-21T10:58:06.541Z,15.10
2023-04-21T11:00:34.894Z,15.10
2023-04-21T11:03:05.470Z,15.71
2023-04-21T11:05:40.723Z,15.13
2023-04-21T11:08:11.537Z,15.21
2023-04-21T11:11:00.642Z,15.53
2023-04-21T11:13:33.912Z,15.35
2023-04-21T11:16:07.673Z,15.96
2023-04-21T11:18:40.654Z,15.88
2023-04-21T11:21:16.165Z,15.53
2023-04-21T11:23:50.256Z,16.16
2023-04-21T11:26:20.242Z,16.18
2023-04-21T11:28:52.640Z,15.70
2023-04-21T11:31:21.079Z,16.37
2023-04-21T11:33:49.962Z,15.91
2023-04-21T11:36:18.156Z,16.18
2023-04-21T11:38:46.660Z,16.79
2023-04-21T11:41:22.405Z,17.00
2023-04-21T11:43:52.357Z,17.30
2023-04-21T11:46:25.937Z,17.47
2023-04-21T11:49:01.779Z,17.57
2023-04-21T11:51:35.518Z,17.71
2023-04-21T11:54:05.954Z,17.65
2023-04-21T11:56:37.660Z,17.74
2023-04-21T11:59:12.909Z,16.77
2023-04-21T12:01:44.878Z,16.61
2023-04-21T12:04:16.540Z,16.58
2023-04-21T12:06:45.885Z,16.49
2023-04-21T12:09:20.284Z,16.37
2023-04-21T12:11:50.312Z,16.70
2023-04-21T12:14:21.414Z,16.47
2023-04-21T12:16:51.550Z,16.59
2023-04-21T12:19:36.301Z,16.15
2023-04-21T12:22:09.222Z,15.85
2023-04-21T12:24:37.560Z,15.46
2023-04-21T12:27:07.081Z,16.18
2023-04-21T12:29:38.086Z,16.41
2023-04-21T12:32:06.852Z,16.51
2023-04-21T12:34:35.498Z,16.35
2023-04-21T12:37:04.601Z,15.69
2023-04-21T12:39:33.242Z,15.60
2023-04-21T12:42:01.757Z,15.78
2023-04-21T12:44:30.282Z,16.18
2023-04-21T12:47:00.327Z,16.09
2023-04-21T12:49:29.054Z,16.33
2023-04-21T12:51:57.529Z,16.41
2023-04-21T12:54:25.949Z,16.92
2023-04-21T12:56:54.090Z,17.04
2023-04-21T12:59:22.545Z,16.67
2023-04-21T13:01:52.136Z,16.58
2023-04-21T13:04:23.097Z,16.92
2023-04-21T13:06:51.663Z,16.82
2023-04-21T13:09:20.111Z,17.41
2023-04-21T13:11:48.361Z,17.68
2023-04-21T13:14:18.110Z,18.61
2023-04-21T13:16:46.615Z,18.78
2023-04-21T13:19:15.317Z,18.94
2023-04-21T13:21:45.546Z,19.33
2023-04-21T13:24:14.912Z,19.59
2023-04-21T13:26:44.199Z,18.17
2023-04-21T13:29:12.311Z,17.66
2023-04-21T13:31:40.965Z,18.14
2023-04-21T13:34:09.100Z,18.66
2023-04-21T13:36:37.594Z,18.86
2023-04-21T13:39:10.885Z,18.79
2023-04-21T13:41:39.017Z,18.57
2023-04-21T13:44:07.166Z,19.22
2023-04-21T13:46:35.340Z,19.99
2023-04-21T13:49:03.884Z,19.90
2023-04-21T13:51:32.489Z,19.80
2023-04-21T13:54:01.089Z,19.07
2023-04-21T13:56:30.604Z,18.75
2023-04-21T13:58:59.601Z,17.77
2023-04-21T14:01:27.805Z,18.13
2023-04-21T14:03:57.620Z,18.28
2023-04-21T14:06:27.480Z,17.85
2023-04-21T14:08:56.126Z,18.03
2023-04-21T14:11:24.517Z,19.18
2023-04-21T14:14:09.000Z,18.68
2023-04-21T14:16:37.753Z,19.66
2023-04-21T14:19:06.343Z,20.56
2023-04-21T14:21:34.851Z,19.84
2023-04-21T14:24:03.296Z,20.55
2023-04-21T14:26:32.036Z,20.79
2023-04-21T14:29:03.189Z,21.32
2023-04-21T14:31:32.355Z,21.37
2023-04-21T14:34:00.758Z,20.75
2023-04-21T14:36:28.939Z,21.77
2023-04-21T14:38:57.084Z,20.82
2023-04-21T14:41:25.338Z,21.49
2023-04-21T14:43:56.700Z,22.03
2023-04-21T14:46:26.677Z,21.62
2023-04-21T14:48:56.388Z,22.32
2023-04-21T14:51:24.621Z,20.80
2023-04-21T14:53:52.748Z,20.99
2023-04-21T14:56:20.829Z,21.35
2023-04-21T14:58:48.971Z,21.74
2023-04-21T15:01:17.276Z,21.67
2023-04-21T15:03:47.199Z,20.40
2023-04-21T15:06:16.291Z,20.65
2023-04-21T15:08:46.643Z,21.81
2023-04-21T15:11:15.489Z,20.79
2023-04-21T15:13:43.711Z,20.97
2023-04-21T15:16:11.929Z,22.50
2023-04-21T15:18:40.115Z,22.77
2023-04-21T15:21:09.633Z,23.39
2023-04-21T15:23:38.061Z,23.18
2023-04-21T15:26:06.431Z,23.16
2023-04-21T15:28:36.114Z,23.64
2023-04-21T15:31:04.297Z,22.60
2023-04-21T15:33:32.992Z,23.43
2023-04-21T15:36:01.161Z,22.43
2023-04-21T15:38:30.782Z,23.02
2023-04-21T15:41:00.771Z,23.87
2023-04-21T15:43:35.229Z,23.81
2023-04-21T15:46:03.368Z,23.41
2023-04-21T15:48:31.684Z,21.27
2023-04-21T15:50:59.803Z,20.49
2023-04-21T15:53:28.382Z,21.43
2023-04-21T15:55:57.832Z,21.64
2023-04-21T15:58:26.531Z,21.35
2023-04-21T16:00:54.794Z,22.04
2023-04-21T16:03:23.155Z,23.07
2023-04-21T16:05:51.556Z,23.44
2023-04-21T16:08:19.890Z,23.21
2023-04-21T16:10:48.223Z,22.52
2023-04-21T16:13:17.912Z,22.99
2023-04-21T16:15:46.241Z,23.82
2023-04-21T16:18:14.428Z,24.06
2023-04-21T16:20:44.128Z,22.67
2023-04-21T16:23:12.232Z,23.71
2023-04-21T16:25:40.762Z,24.10
2023-04-21T16:28:11.611Z,24.54
2023-04-21T16:30:43.957Z,24.59
2023-04-21T16:33:13.286Z,24.01
2023-04-21T16:35:44.585Z,23.16
2023-04-21T16:38:13.116Z,24.13
2023-04-21T16:40:41.229Z,24.01
2023-04-21T16:43:09.618Z,23.83
2023-04-21T16:45:38.200Z,24.47
2023-04-21T16:48:08.375Z,25.43
2023-04-21T16:50:36.684Z,24.93
2023-04-21T16:53:04.792Z,25.73
2023-04-21T16:55:32.819Z,26.43
2023-04-21T16:58:01.000Z,24.86
2023-04-21T17:00:30.428Z,25.68
2023-04-21T17:02:58.849Z,25.38
2023-04-21T17:05:28.730Z,25.55
2023-04-21T17:07:56.884Z,25.43
2023-04-21T17:10:27.114Z,25.73
2023-04-21T17:12:55.271Z,26.27
2023-04-21T17:15:23.734Z,26.06
2023-04-21T17:17:51.986Z,26.07
2023-04-21T17:20:20.182Z,26.05
2023-04-21T17:22:50.122Z,26.02
2023-04-21T17:25:18.270Z,25.30
2023-04-21T17:27:46.629Z,25.06
2023-04-21T17:30:17.128Z,24.54
2023-04-21T17:32:45.400Z,24.00
2023-04-21T17:35:13.611Z,24.07
2023-04-21T17:37:44.374Z,24.01
2023-04-21T17:40:14.752Z,23.45
2023-04-21T17:42:43.186Z,23.45
2023-04-21T17:45:12.189Z,22.83
2023-04-21T17:47:40.893Z,21.78
2023-04-21T17:50:11.852Z,20.38
2023-04-21T17:52:40.406Z,21.17
2023-04-21T17:55:09.394Z,20.31
2023-04-21T17:57:40.247Z,19.92
2023-04-21T18:00:11.614Z,20.29
2023-04-21T18:02:39.991Z,19.47
2023-04-21T18:05:09.500Z,18.69
2023-04-21T18:07:37.931Z,18.27
2023-04-21T18:10:07.276Z,18.11
2023-04-21T18:12:35.844Z,18.02
2023-04-21T18:15:07.662Z,18.45
2023-04-21T18:17:37.283Z,18.06
2023-04-21T18:20:06.371Z,18.82
2023-04-21T18:22:35.671Z,18.99
2023-04-21T18:25:04.269Z,19.30
2023-04-21T18:27:32.444Z,19.32
2023-04-21T18:30:00.839Z,19.24
2023-04-21T18:32:33.819Z,19.31
2023-04-21T18:35:02.455Z,19.19
2023-04-21T18:37:32.315Z,19.15
2023-04-21T18:40:00.960Z,18.87
2023-04-21T18:42:29.452Z,18.71
2023-04-21T18:44:58.693Z,18.65
2023-04-21T18:47:28.032Z,18.60
2023-04-21T18:50:00.358Z,18.25
2023-04-21T18:52:28.748Z,17.35
2023-04-21T18:54:56.934Z,16.79
2023-04-21T18:57:25.956Z,16.70
2023-04-21T18:59:54.791Z,16.90
2023-04-21T19:02:23.097Z,16.73
2023-04-21T19:04:51.569Z,16.86
2023-04-21T19:07:22.149Z,16.54
2023-04-21T19:09:52.364Z,16.88
2023-04-21T19:12:21.959Z,17.40
2023-04-21T19:14:50.945Z,17.61
2023-04-21T19:17:19.349Z,17.82
2023-04-21T19:19:47.648Z,18.01
2023-04-21T19:22:16.080Z,18.06
2023-04-21T19:24:45.692Z,18.12
2023-04-21T19:27:14.387Z,18.02
2023-04-21T19:29:43.017Z,17.84
2023-04-21T19:32:11.374Z,17.84
2023-04-21T19:34:40.113Z,17.82
2023-04-21T19:37:08.962Z,17.83
2023-04-21T19:39:37.238Z,17.70
2023-04-21T19:42:07.071Z,17.74
2023-04-21T19:44:35.779Z,17.37
2023-04-21T19:47:04.683Z,17.35
2023-04-21T19:49:32.954Z,17.14
2023-04-21T19:52:01.396Z,17.30
2023-04-21T19:54:29.743Z,17.40
2023-04-21T19:56:58.077Z,17.32
2023-04-21T19:59:27.905Z,17.43
2023-04-21T20:01:56.108Z,17.19
2023-04-21T20:04:24.520Z,17.23
2023-04-21T20:06:52.927Z,17.31
2023-04-21T20:09:21.060Z,16.95
2023-04-21T20:11:49.550Z,16.82
2023-04-21T20:14:19.395Z,17.07
2023-04-21T20:16:50.275Z,17.01
2023-04-21T20:19:18.481Z,16.72
2023-04-21T20:21:46.593Z,15.57
2023-04-21T20:24:14.796Z,16.01
2023-04-21T20:26:42.948Z,16.11
2023-04-21T20:29:11.249Z,16.12
2023-04-21T20:31:41.689Z,16.03
2023-04-21T20:34:12.124Z,16.08
2023-04-21T20:36:41.793Z,16.05
2023-04-21T20:39:10.118Z,16.28
2023-04-21T20:41:39.099Z,16.30
2023-04-21T20:44:07.387Z,16.24
2023-04-21T20:46:35.634Z,16.00
2023-04-21T20:49:04.599Z,16.13
2023-04-21T20:51:34.458Z,15.89
2023-04-21T20:54:02.653Z,15.66
2023-04-21T20:56:32.315Z,15.47
2023-04-21T20:59:00.739Z,15.54
2023-04-21T21:01:30.656Z,15.41
2023-04-21T21:04:01.375Z,15.25
2023-04-21T21:06:30.217Z,15.25
2023-04-21T21:09:01.103Z,15.29
2023-04-21T21:11:29.557Z,15.10
2023-04-21T21:13:58.823Z,15.00
2023-04-21T21:16:27.314Z,14.94
2023-04-21T21:18:55.418Z,14.93
2023-04-21T21:21:23.787Z,14.87
2023-04-21T21:23:52.196Z,14.87
2023-04-21T21:26:22.495Z,14.76
2023-04-21T21:28:50.889Z,14.62
2023-04-21T21:31:19.209Z,14.63
2023-04-21T21:33:47.359Z,14.71
2023-04-21T21:36:15.770Z,14.57
2023-04-21T21:38:44.094Z,14.70
2023-04-21T21:41:12.877Z,14.74
2023-04-21T21:43:42.513Z,14.77
2023-04-21T21:46:13.665Z,14.75
2023-04-21T21:48:42.716Z,14.85
2023-04-21T21:51:11.264Z,14.86
2023-04-21T21:53:39.499Z,14.76
2023-04-21T21:56:07.961Z,14.63
2023-04-21T21:58:36.400Z,14.63
2023-04-21T22:01:06.954Z,14.29
2023-04-21T22:03:36.328Z,14.25
2023-04-21T22:06:05.326Z,14.41
2023-04-21T22:08:33.660Z,14.47
2023-04-21T22:11:06.031Z,14.51
2023-04-21T22:13:34.147Z,14.34
2023-04-21T22:16:02.981Z,14.37
2023-04-21T22:18:32.804Z,14.27
2023-04-21T22:21:01.446Z,14.15
2023-04-21T22:23:29.822Z,14.15
2023-04-21T22:25:58.027Z,14.04
2023-04-21T22:28:26.367Z,13.68
2023-04-21T22:30:54.532Z,13.67
2023-04-21T22:33:24.354Z,13.68
2023-04-21T22:35:54.482Z,13.74
2023-04-21T22:38:22.601Z,13.55
2023-04-21T22:40:50.658Z,13.37
2023-04-21T22:43:21.191Z,13.31
2023-04-21T22:45:51.879Z,13.29
2023-04-21T22:48:20.131Z,13.12
2023-04-21T22:50:48.204Z,12.93
2023-04-21T22:53:18.058Z,13.17
2023-04-21T22:55:46.308Z,13.11
2023-04-21T22:58:15.740Z,13.28
2023-04-21T23:00:45.239Z,13.22
2023-04-21T23:03:13.651Z,13.09
2023-04-21T23:05:42.487Z,13.23
2023-04-21T23:08:10.712Z,13.18
2023-04-21T23:10:40.692Z,13.25
2023-04-21T23:13:08.740Z,13.30
2023-04-21T23:15:37.189Z,13.22
2023-04-21T23:18:05.586Z,13.15
2023-04-21T23:20:34.006Z,12.88
2023-04-21T23:23:03.307Z,12.87
2023-04-21T23:25:32.051Z,12.69
2023-04-21T23:28:02.575Z,12.60
2023-04-21T23:30:30.909Z,12.43
2023-04-21T23:32:59.538Z,12.36
2023-04-21T23:35:29.217Z,12.33
2023-04-21T23:37:57.519Z,12.59
2023-04-21T23:40:26.215Z,12.65
2023-04-21T23:42:54.627Z,12.62
2023-04-21T23:45:24.160Z,12.81
2023-04-21T23:47:52.710Z,12.80
2023-04-21T23:50:21.013Z,12.52
2023-04-21T23:52:51.098Z,12.50
2023-04-21T23:55:19.646Z,12.50
2023-04-21T23:57:48.014Z,12.45
